X  Schlie├čen METAR Luftfahrt Wetterdaten     EDDC Dresden Airport
Temperatur
16°C Temperatur
5°C Taupunkt
48% Feuchtigkeit



Wind
3 KM/S
2 MPS
1 M/S
2 KTS



Kein Wind
N
Aktuelle Wetterlage

Klar Klar
Luftdruck 1015.92 (hPa) - 30 (inHg)
Sichtweite 6 (Meile) - 9.7 (Km)
Flughafen
Flughafen Code EDDC

Position : Dresden Airport
Entfernung: 122 (Km)

Metar:
EDDC 121850Z AUTO VRB02KT CAVOK 16/05 Q1016 NOSIG

Zeit: 12-06-2024 20:50 CEST